Accueil
METAR-TAF:

METAR-TAF

Aéroports :

Aéroport de Milaga

Tripoli, Libye

latitude: 32-54N, longitude: 13-17E, altitude: 11 m

METAR: absent

Heure: 13:03 (11:03 UTC)

Prévision

Le bulletin a été fait il y a 6 heures et 3 minutes, à 05:00 UTC
Prévision valable du 16 à 06 UTC au 17 à 06 UTC
Vent 10 kt de nord avec des rafales jusqu'à 20 kt
Visibilité: 8000 m
Nuages épars à une hauteur de 2500 ft
Nuages épars à une hauteur de 7000 ft
Probabilité 30% :
Temporairement
du 16 à 09 UTC au 16 à 18 UTC
Visibilité: 5000 m
Nuages fragmentés à une hauteur de 2500 ft
Nuages épars à une hauteur de 7000 ft
averses de pluie

TAF: HLLM 160500Z 1606/1706 36010G20KT 8000 SCT025 SCT070 PROB30 TEMPO 1609/1618 5000 SHRA BKN025 SCT070

Observations et prévisions météorologiques de plus de 4000 aéroports (messages METAR et TAF).

Les stations disponibles sont représentées par des disques jaunes et rouges sur la carte.

Passer la souris dessus pour voir le nom de la station.

Cliquer dessus pour voir les observations et prévisions météorologiques.

Pour changer de carte: cliquez sur les boutons verts avec une croix noire pour zoomer, sur le bouton vert avec un tiret pour effectuer un zoom arrière, ou sur les flèches vertes pour les cartes adjacentes.


METAR-TAF: